sensor_id;sensor_type;location;lat;lon;timestamp;pressure;altitude;pressure_sealevel;temperature;humidity
36692;BME280;22678;52.052;4.242;2022-09-21T00:00:49;102732.13;;;14.11;65.70
36692;BME280;22678;52.052;4.242;2022-09-21T00:03:15;102710.91;;;14.02;65.52
36692;BME280;22678;52.052;4.242;2022-09-21T00:05:41;102723.22;;;14.00;65.97
36692;BME280;22678;52.052;4.242;2022-09-21T00:08:07;102725.03;;;14.04;66.11
36692;BME280;22678;52.052;4.242;2022-09-21T00:10:35;102721.50;;;14.02;66.18
36692;BME280;22678;52.052;4.242;2022-09-21T00:13:00;102720.53;;;13.94;66.40
36692;BME280;22678;52.052;4.242;2022-09-21T00:15:30;102724.13;;;13.99;66.52
36692;BME280;22678;52.052;4.242;2022-09-21T00:17:56;102732.94;;;14.01;66.68
36692;BME280;22678;52.052;4.242;2022-09-21T00:20:23;102714.38;;;13.92;66.90
36692;BME280;22678;52.052;4.242;2022-09-21T00:22:50;102731.22;;;14.03;67.23
36692;BME280;22678;52.052;4.242;2022-09-21T00:25:16;102714.38;;;13.95;67.40
36692;BME280;22678;52.052;4.242;2022-09-21T00:27:41;102717.94;;;14.00;67.23
36692;BME280;22678;52.052;4.242;2022-09-21T00:30:08;102724.13;;;14.00;67.65
36692;BME280;22678;52.052;4.242;2022-09-21T00:32:36;102724.16;;;14.04;67.86
36692;BME280;22678;52.052;4.242;2022-09-21T00:35:03;102711.75;;;13.95;67.98
36692;BME280;22678;52.052;4.242;2022-09-21T00:37:29;102717.94;;;14.01;68.25
36692;BME280;22678;52.052;4.242;2022-09-21T00:39:55;102711.75;;;13.96;68.52
36692;BME280;22678;52.052;4.242;2022-09-21T00:42:22;102716.19;;;13.97;68.51
36692;BME280;22678;52.052;4.242;2022-09-21T00:44:49;102715.25;;;13.95;68.56
36692;BME280;22678;52.052;4.242;2022-09-21T00:47:38;102721.50;;;14.04;68.99
36692;BME280;22678;52.052;4.242;2022-09-21T00:50:08;102728.56;;;14.03;68.78
36692;BME280;22678;52.052;4.242;2022-09-21T00:52:41;102725.03;;;14.04;69.14
36692;BME280;22678;52.052;4.242;2022-09-21T00:55:33;102725.03;;;14.04;69.10
36692;BME280;22678;52.052;4.242;2022-09-21T00:58:06;102713.53;;;13.97;69.28
36692;BME280;22678;52.052;4.242;2022-09-21T01:00:35;102723.28;;;14.03;69.25
36692;BME280;22678;52.052;4.242;2022-09-21T01:03:01;102714.41;;;13.99;69.27
36692;BME280;22678;52.052;4.242;2022-09-21T01:05:27;102659.50;;;13.66;69.78
36692;BME280;22678;52.052;4.242;2022-09-21T01:07:53;102712.66;;;14.00;69.63
36692;BME280;22678;52.052;4.242;2022-09-21T01:10:20;102705.56;;;13.93;69.69
36692;BME280;22678;52.052;4.242;2022-09-21T01:23:58;102711.72;;;13.90;69.68
36692;BME280;22678;52.052;4.242;2022-09-21T01:29:48;102716.97;;;13.86;70.72
36692;BME280;22678;52.052;4.242;2022-09-21T01:32:18;102710.75;;;13.83;70.49
36692;BME280;22678;52.052;4.242;2022-09-21T01:34:58;102713.41;;;13.85;70.69
36692;BME280;22678;52.052;4.242;2022-09-21T01:37:36;102708.09;;;13.82;70.91
36692;BME280;22678;52.052;4.242;2022-09-21T01:40:13;102709.00;;;13.82;71.08
36692;BME280;22678;52.052;4.242;2022-09-21T01:42:43;102725.75;;;13.84;70.92
36692;BME280;22678;52.052;4.242;2022-09-21T01:45:13;102720.44;;;13.81;71.28
36692;BME280;22678;52.052;4.242;2022-09-21T01:47:42;102723.97;;;13.80;71.11
36692;BME280;22678;52.052;4.242;2022-09-21T01:50:10;102714.22;;;13.76;71.09
36692;BME280;22678;52.052;4.242;2022-09-21T01:53:07;102731.91;;;13.83;71.20
36692;BME280;22678;52.052;4.242;2022-09-21T01:55:38;102726.63;;;13.83;71.47
36692;BME280;22678;52.052;4.242;2022-09-21T01:58:33;102727.53;;;13.82;71.62
36692;BME280;22678;52.052;4.242;2022-09-21T02:01:01;102728.38;;;13.81;71.71
36692;BME280;22678;52.052;4.242;2022-09-21T02:03:33;102730.16;;;13.81;71.83
36692;BME280;22678;52.052;4.242;2022-09-21T02:06:02;102724.88;;;13.82;71.98
36692;BME280;22678;52.052;4.242;2022-09-21T02:08:31;102716.84;;;13.73;72.12
36692;BME280;22678;52.052;4.242;2022-09-21T02:10:58;102727.53;;;13.82;72.14
36692;BME280;22678;52.052;4.242;2022-09-21T02:13:25;102723.94;;;13.79;72.34
36692;BME280;22678;52.052;4.242;2022-09-21T02:16:21;102725.75;;;13.83;72.45
36692;BME280;22678;52.052;4.242;2022-09-21T02:24:23;102731.88;;;13.80;72.39
36692;BME280;22678;52.052;4.242;2022-09-21T02:27:04;102731.88;;;13.80;72.59
36692;BME280;22678;52.052;4.242;2022-09-21T02:29:45;102731.88;;;13.77;72.51
36692;BME280;22678;52.052;4.242;2022-09-21T02:37:50;102733.63;;;13.75;72.71
36692;BME280;22678;52.052;4.242;2022-09-21T02:42:58;102730.06;;;13.73;72.94
36692;BME280;22678;52.052;4.242;2022-09-21T02:45:36;102724.78;;;13.73;73.10
36692;BME280;22678;52.052;4.242;2022-09-21T02:48:36;102709.72;;;13.66;73.34
36692;BME280;22678;52.052;4.242;2022-09-21T02:51:11;102719.47;;;13.70;73.33
36692;BME280;22678;52.052;4.242;2022-09-21T02:53:39;102721.25;;;13.71;73.13
36692;BME280;22678;52.052;4.242;2022-09-21T02:56:07;102683.19;;;13.54;73.33
36692;BME280;22678;52.052;4.242;2022-09-21T02:58:36;102709.69;;;13.63;73.50
36692;BME280;22678;52.052;4.242;2022-09-21T03:01:04;102722.09;;;13.69;73.57
36692;BME280;22678;52.052;4.242;2022-09-21T03:03:31;102713.25;;;13.62;73.76
36692;BME280;22678;52.052;4.242;2022-09-21T03:05:57;102695.53;;;13.53;74.09
36692;BME280;22678;52.052;4.242;2022-09-21T03:08:23;102719.41;;;13.64;74.03
36692;BME280;22678;52.052;4.242;2022-09-21T03:10:48;102722.06;;;13.65;74.16
36692;BME280;22678;52.052;4.242;2022-09-21T03:13:14;102720.28;;;13.64;74.34
36692;BME280;22678;52.052;4.242;2022-09-21T03:15:40;102723.81;;;13.63;74.37
36692;BME280;22678;52.052;4.242;2022-09-21T03:18:07;102720.28;;;13.63;74.19
36692;BME280;22678;52.052;4.242;2022-09-21T03:20:35;102691.94;;;13.46;74.48
36692;BME280;22678;52.052;4.242;2022-09-21T03:23:01;102720.25;;;13.61;74.43
36692;BME280;22678;52.052;4.242;2022-09-21T03:25:27;102712.28;;;13.54;74.63
36692;BME280;22678;52.052;4.242;2022-09-21T03:27:53;102699.88;;;13.46;74.82
36692;BME280;22678;52.052;4.242;2022-09-21T03:30:22;102701.66;;;13.47;74.82
36692;BME280;22678;52.052;4.242;2022-09-21T03:32:51;102706.03;;;13.47;74.91
36692;BME280;22678;52.052;4.242;2022-09-21T03:35:18;102726.38;;;13.57;75.10
36692;BME280;22678;52.052;4.242;2022-09-21T03:37:44;102720.19;;;13.54;75.16
36692;BME280;22678;52.052;4.242;2022-09-21T03:40:14;102733.44;;;13.55;75.22
36692;BME280;22678;52.052;4.242;2022-09-21T03:42:39;102725.50;;;13.55;75.12
36692;BME280;22678;52.052;4.242;2022-09-21T03:45:06;102715.75;;;13.49;75.19
36692;BME280;22678;52.052;4.242;2022-09-21T03:47:32;102725.50;;;13.54;75.37
36692;BME280;22678;52.052;4.242;2022-09-21T03:49:57;102725.47;;;13.51;75.72
36692;BME280;22678;52.052;4.242;2022-09-21T03:52:23;102724.59;;;13.52;75.41
36692;BME280;22678;52.052;4.242;2022-09-21T03:54:48;102719.22;;;13.45;75.58
36692;BME280;22678;52.052;4.242;2022-09-21T03:57:13;102705.03;;;13.34;75.79
36692;BME280;22678;52.052;4.242;2022-09-21T03:59:38;102729.81;;;13.45;75.79
36692;BME280;22678;52.052;4.242;2022-09-21T04:02:04;102727.13;;;13.44;75.73
36692;BME280;22678;52.052;4.242;2022-09-21T04:04:29;102732.44;;;13.45;75.91
36692;BME280;22678;52.052;4.242;2022-09-21T04:06:54;102720.91;;;13.34;75.75
36692;BME280;22678;52.052;4.242;2022-09-21T04:09:20;102729.78;;;13.42;75.79
36692;BME280;22678;52.052;4.242;2022-09-21T04:11:45;102737.66;;;13.39;75.77
36692;BME280;22678;52.052;4.242;2022-09-21T04:14:12;102714.63;;;13.27;75.80
36692;BME280;22678;52.052;4.242;2022-09-21T04:16:37;102724.34;;;13.30;75.87
36692;BME280;22678;52.052;4.242;2022-09-21T04:19:03;102727.00;;;13.33;76.13
36692;BME280;22678;52.052;4.242;2022-09-21T04:21:29;102729.63;;;13.30;75.87
36692;BME280;22678;52.052;4.242;2022-09-21T04:23:54;102720.72;;;13.22;75.98
36692;BME280;22678;52.052;4.242;2022-09-21T04:26:28;102726.06;;;13.28;76.15
36692;BME280;22678;52.052;4.242;2022-09-21T04:28:55;102729.59;;;13.27;76.24
36692;BME280;22678;52.052;4.242;2022-09-21T04:31:21;102729.59;;;13.25;76.26
36692;BME280;22678;52.052;4.242;2022-09-21T04:33:48;102718.06;;;13.20;76.43
36692;BME280;22678;52.052;4.242;2022-09-21T04:36:15;102709.16;;;13.10;76.33
36692;BME280;22678;52.052;4.242;2022-09-21T04:38:40;102711.81;;;13.12;76.20
36692;BME280;22678;52.052;4.242;2022-09-21T04:41:05;102710.03;;;13.09;76.31
36692;BME280;22678;52.052;4.242;2022-09-21T04:43:31;102709.13;;;13.07;76.52
36692;BME280;22678;52.052;4.242;2022-09-21T04:45:56;102725.91;;;13.12;76.63
36692;BME280;22678;52.052;4.242;2022-09-21T04:48:22;102722.38;;;13.10;76.80
36692;BME280;22678;52.052;4.242;2022-09-21T04:50:48;102726.78;;;13.13;76.63
36692;BME280;22678;52.052;4.242;2022-09-21T04:53:14;102710.00;;;13.06;76.64
36692;BME280;22678;52.052;4.242;2022-09-21T04:55:39;102712.59;;;13.02;76.79
36692;BME280;22678;52.052;4.242;2022-09-21T04:58:05;102735.63;;;13.13;77.00
36692;BME280;22678;52.052;4.242;2022-09-21T05:00:30;102732.97;;;13.13;76.97
36692;BME280;22678;52.052;4.242;2022-09-21T05:02:56;102720.53;;;13.03;76.74
36692;BME280;22678;52.052;4.242;2022-09-21T05:05:22;102725.84;;;13.06;77.21
36692;BME280;22678;52.052;4.242;2022-09-21T05:07:47;102731.16;;;13.09;77.44
36692;BME280;22678;52.052;4.242;2022-09-21T05:10:12;102724.91;;;13.03;77.21
36692;BME280;22678;52.052;4.242;2022-09-21T05:12:38;102723.16;;;13.03;77.22
36692;BME280;22678;52.052;4.242;2022-09-21T05:15:03;102733.75;;;13.06;77.25
36692;BME280;22678;52.052;4.242;2022-09-21T05:17:29;102728.41;;;13.00;77.21
36692;BME280;22678;52.052;4.242;2022-09-21T05:19:55;102736.38;;;13.03;77.27
36692;BME280;22678;52.052;4.242;2022-09-21T05:22:20;102722.19;;;12.95;77.30
36692;BME280;22678;52.052;4.242;2022-09-21T05:24:46;102722.19;;;12.95;77.51
36692;BME280;22678;52.052;4.242;2022-09-21T05:27:11;102738.94;;;12.97;77.47
36692;BME280;22678;52.052;4.242;2022-09-21T05:29:38;102730.13;;;12.96;77.42
36692;BME280;22678;52.052;4.242;2022-09-21T05:35:15;102737.16;;;12.94;77.65
36692;BME280;22678;52.052;4.242;2022-09-21T05:37:57;102735.34;;;12.90;77.72
36692;BME280;22678;52.052;4.242;2022-09-21T05:40:24;102725.56;;;12.85;77.66
36692;BME280;22678;52.052;4.242;2022-09-21T05:42:50;102735.34;;;12.90;77.82
36692;BME280;22678;52.052;4.242;2022-09-21T05:45:17;102740.66;;;12.95;77.75
36692;BME280;22678;52.052;4.242;2022-09-21T05:47:53;102745.09;;;12.96;77.85
36692;BME280;22678;52.052;4.242;2022-09-21T05:50:33;102745.09;;;12.96;78.03
36692;BME280;22678;52.052;4.242;2022-09-21T05:53:23;102725.59;;;12.86;78.14
36692;BME280;22678;52.052;4.242;2022-09-21T05:56:14;102740.69;;;12.98;78.18
36692;BME280;22678;52.052;4.242;2022-09-21T06:04:11;102750.41;;;12.99;78.28
36692;BME280;22678;52.052;4.242;2022-09-21T06:06:37;102748.66;;;13.01;78.48
36692;BME280;22678;52.052;4.242;2022-09-21T06:09:03;102738.00;;;12.92;78.47
36692;BME280;22678;52.052;4.242;2022-09-21T06:11:28;102749.56;;;13.02;78.33
36692;BME280;22678;52.052;4.242;2022-09-21T06:13:54;102732.72;;;12.92;78.22
36692;BME280;22678;52.052;4.242;2022-09-21T06:16:19;102738.09;;;13.01;78.25
36692;BME280;22678;52.052;4.242;2022-09-21T06:18:44;102746.03;;;13.03;78.02
36692;BME280;22678;52.052;4.242;2022-09-21T06:21:10;102733.75;;;13.05;78.36
36692;BME280;22678;52.052;4.242;2022-09-21T06:23:35;102742.63;;;13.11;78.27
36692;BME280;22678;52.052;4.242;2022-09-21T06:26:01;102748.84;;;13.17;78.10
36692;BME280;22678;52.052;4.242;2022-09-21T06:28:26;102731.22;;;13.15;78.41
36692;BME280;22678;52.052;4.242;2022-09-21T06:30:53;102741.91;;;13.28;78.20
36692;BME280;22678;52.052;4.242;2022-09-21T06:33:19;102723.31;;;13.17;77.96
36692;BME280;22678;52.052;4.242;2022-09-21T06:35:57;102751.84;;;13.46;77.92
36692;BME280;22678;52.052;4.242;2022-09-21T06:38:24;102748.41;;;13.55;77.42
36692;BME280;22678;52.052;4.242;2022-09-21T06:40:50;102744.06;;;13.63;77.21
36692;BME280;22678;52.052;4.242;2022-09-21T06:43:16;102749.50;;;13.75;76.76
36692;BME280;22678;52.052;4.242;2022-09-21T06:45:41;102754.09;;;13.99;76.07
36692;BME280;22678;52.052;4.242;2022-09-21T06:48:07;102758.69;;;14.24;75.35
36692;BME280;22678;52.052;4.242;2022-09-21T06:50:33;102752.66;;;14.48;74.47
36692;BME280;22678;52.052;4.242;2022-09-21T06:52:59;102734.25;;;14.62;73.39
36692;BME280;22678;52.052;4.242;2022-09-21T06:55:24;102757.34;;;14.92;71.27
36692;BME280;22678;52.052;4.242;2022-09-21T06:57:50;102749.44;;;15.03;70.15
36692;BME280;22678;52.052;4.242;2022-09-21T07:00:16;102762.78;;;15.28;68.40
36692;BME280;22678;52.052;4.242;2022-09-21T07:02:42;102751.31;;;15.41;67.92
36692;BME280;22678;52.052;4.242;2022-09-21T07:05:08;102747.78;;;15.59;67.11
36692;BME280;22678;52.052;4.242;2022-09-21T07:07:33;102747.81;;;15.76;66.22
36692;BME280;22678;52.052;4.242;2022-09-21T07:10:00;102757.59;;;15.89;64.29
36692;BME280;22678;52.052;4.242;2022-09-21T07:12:27;102754.94;;;15.91;63.01
36692;BME280;22678;52.052;4.242;2022-09-21T07:14:52;102754.06;;;15.87;63.08
36692;BME280;22678;52.052;4.242;2022-09-21T07:17:17;102763.75;;;15.77;62.90
36692;BME280;22678;52.052;4.242;2022-09-21T07:19:43;102754.00;;;15.63;62.73
36692;BME280;22678;52.052;4.242;2022-09-21T07:22:08;102756.63;;;15.47;62.38
36692;BME280;22678;52.052;4.242;2022-09-21T07:24:34;102746.88;;;15.34;62.46
36692;BME280;22678;52.052;4.242;2022-09-21T07:26:59;102747.72;;;15.27;62.49
36692;BME280;22678;52.052;4.242;2022-09-21T07:29:24;102707.94;;;14.99;62.56
36692;BME280;22678;52.052;4.242;2022-09-21T07:31:49;102767.22;;;15.35;62.83
36692;BME280;22678;52.052;4.242;2022-09-21T07:34:15;102764.56;;;15.44;62.77
36692;BME280;22678;52.052;4.242;2022-09-21T07:36:41;102766.34;;;15.53;62.28
36692;BME280;22678;52.052;4.242;2022-09-21T07:39:08;102764.63;;;15.59;61.79
36692;BME280;22678;52.052;4.242;2022-09-21T07:41:34;102746.94;;;15.63;61.42
36692;BME280;22678;52.052;4.242;2022-09-21T07:44:00;102761.97;;;15.69;61.23
36692;BME280;22678;52.052;4.242;2022-09-21T07:46:25;102753.13;;;15.67;60.96
36692;BME280;22678;52.052;4.242;2022-09-21T07:48:54;102765.50;;;15.68;60.91
36692;BME280;22678;52.052;4.242;2022-09-21T07:51:20;102757.53;;;15.60;60.93
36692;BME280;22678;52.052;4.242;2022-09-21T07:53:46;102757.53;;;15.62;60.80
36692;BME280;22678;52.052;4.242;2022-09-21T07:56:14;102763.75;;;15.77;60.87
36692;BME280;22678;52.052;4.242;2022-09-21T07:58:41;102761.13;;;16.01;60.27
36692;BME280;22678;52.052;4.242;2022-09-21T08:01:27;102763.78;;;16.13;59.61
36692;BME280;22678;52.052;4.242;2022-09-21T08:03:55;102734.56;;;16.13;59.13
36692;BME280;22678;52.052;4.242;2022-09-21T08:06:22;102754.88;;;16.48;58.63
36692;BME280;22678;52.052;4.242;2022-09-21T08:08:47;102745.94;;;16.72;57.59
36692;BME280;22678;52.052;4.242;2022-09-21T08:11:14;102768.00;;;17.07;56.92
36692;BME280;22678;52.052;4.242;2022-09-21T08:13:40;102769.66;;;17.26;56.40
36692;BME280;22678;52.052;4.242;2022-09-21T08:16:05;102766.00;;;17.43;56.07
36692;BME280;22678;52.052;4.242;2022-09-21T08:18:31;102767.66;;;17.65;55.44
36692;BME280;22678;52.052;4.242;2022-09-21T08:21:00;102764.81;;;17.90;54.86
36692;BME280;22678;52.052;4.242;2022-09-21T08:23:26;102777.03;;;18.14;53.92
36692;BME280;22678;52.052;4.242;2022-09-21T08:26:00;102761.97;;;18.12;53.50
36692;BME280;22678;52.052;4.242;2022-09-21T08:28:28;102774.38;;;18.16;53.34
36692;BME280;22678;52.052;4.242;2022-09-21T08:31:04;102776.19;;;18.08;53.23
36692;BME280;22678;52.052;4.242;2022-09-21T08:33:31;102767.47;;;17.87;52.78
36692;BME280;22678;52.052;4.242;2022-09-21T08:35:58;102772.00;;;17.77;53.17
36692;BME280;22678;52.052;4.242;2022-09-21T08:38:24;102778.16;;;17.81;53.36
36692;BME280;22678;52.052;4.242;2022-09-21T08:40:51;102772.06;;;17.65;53.15
36692;BME280;22678;52.052;4.242;2022-09-21T08:43:28;102774.66;;;17.79;53.34
36692;BME280;22678;52.052;4.242;2022-09-21T08:45:56;102778.97;;;17.97;53.13
36692;BME280;22678;52.052;4.242;2022-09-21T08:48:25;102769.88;;;18.21;52.66
36692;BME280;22678;52.052;4.242;2022-09-21T08:50:59;102772.25;;;18.49;51.99
36692;BME280;22678;52.052;4.242;2022-09-21T08:53:42;102772.13;;;18.61;51.32
36692;BME280;22678;52.052;4.242;2022-09-21T08:56:13;102788.84;;;18.74;50.59
36692;BME280;22678;52.052;4.242;2022-09-21T08:58:39;102749.97;;;18.56;50.24
36692;BME280;22678;52.052;4.242;2022-09-21T09:01:29;102787.81;;;18.92;50.04
36692;BME280;22678;52.052;4.242;2022-09-21T09:09:25;102783.19;;;19.03;49.22
36692;BME280;22678;52.052;4.242;2022-09-21T09:15:20;102790.50;;;18.89;49.83
36692;BME280;22678;52.052;4.242;2022-09-21T09:18:02;102798.47;;;18.92;49.33
36692;BME280;22678;52.052;4.242;2022-09-21T09:23:14;102787.72;;;18.98;48.55
36692;BME280;22678;52.052;4.242;2022-09-21T09:25:46;102753.19;;;18.89;48.33
36692;BME280;22678;52.052;4.242;2022-09-21T09:28:29;102801.66;;;19.22;47.93
36692;BME280;22678;52.052;4.242;2022-09-21T09:31:00;102806.88;;;19.28;47.35
36692;BME280;22678;52.052;4.242;2022-09-21T09:36:09;102780.06;;;19.37;47.30
36692;BME280;22678;52.052;4.242;2022-09-21T09:38:39;102783.56;;;19.42;46.53
36692;BME280;22678;52.052;4.242;2022-09-21T09:45:08;102792.84;;;19.77;45.93
36692;BME280;22678;52.052;4.242;2022-09-21T09:52:27;102786.03;;;20.16;44.66
36692;BME280;22678;52.052;4.242;2022-09-21T09:54:53;102774.28;;;20.23;44.95
36692;BME280;22678;52.052;4.242;2022-09-21T09:57:26;102778.72;;;20.24;44.71
36692;BME280;22678;52.052;4.242;2022-09-21T09:59:54;102784.06;;;20.24;44.58
36692;BME280;22678;52.052;4.242;2022-09-21T10:02:25;102780.69;;;20.14;44.57
36692;BME280;22678;52.052;4.242;2022-09-21T10:05:01;102780.56;;;20.22;44.66
36692;BME280;22678;52.052;4.242;2022-09-21T10:09:58;102778.66;;;20.27;44.41
36692;BME280;22678;52.052;4.242;2022-09-21T10:12:24;102786.69;;;20.27;44.34
36692;BME280;22678;52.052;4.242;2022-09-21T10:14:53;102764.34;;;20.31;44.28
36692;BME280;22678;52.052;4.242;2022-09-21T10:17:23;102770.44;;;20.39;44.03
36692;BME280;22678;52.052;4.242;2022-09-21T10:19:58;102785.50;;;20.43;44.11
36692;BME280;22678;52.052;4.242;2022-09-21T10:22:24;102766.00;;;20.38;44.00
36692;BME280;22678;52.052;4.242;2022-09-21T10:24:51;102779.34;;;20.40;42.64
36692;BME280;22678;52.052;4.242;2022-09-21T10:27:28;102785.56;;;20.40;42.32
36692;BME280;22678;52.052;4.242;2022-09-21T10:29:53;102767.72;;;20.42;42.31
36692;BME280;22678;52.052;4.242;2022-09-21T10:32:24;102772.00;;;20.51;42.15
36692;BME280;22678;52.052;4.242;2022-09-21T10:37:45;102778.28;;;20.95;41.51
36692;BME280;22678;52.052;4.242;2022-09-21T10:42:42;102771.47;;;20.80;40.98
36692;BME280;22678;52.052;4.242;2022-09-21T10:45:19;102777.50;;;20.89;41.25
36692;BME280;22678;52.052;4.242;2022-09-21T10:47:50;102751.75;;;20.85;40.35
36692;BME280;22678;52.052;4.242;2022-09-21T10:53:11;102770.59;;;20.78;40.89
36692;BME280;22678;52.052;4.242;2022-09-21T10:55:41;102755.75;;;20.62;41.10
36692;BME280;22678;52.052;4.242;2022-09-21T10:58:11;102776.13;;;20.69;41.10
36692;BME280;22678;52.052;4.242;2022-09-21T11:00:45;102758.47;;;20.59;40.04
36692;BME280;22678;52.052;4.242;2022-09-21T11:03:35;102761.91;;;20.69;40.46
36692;BME280;22678;52.052;4.242;2022-09-21T11:09:12;102762.97;;;21.02;40.81
36692;BME280;22678;52.052;4.242;2022-09-21T11:26:14;102763.66;;;21.88;41.81
36692;BME280;22678;52.052;4.242;2022-09-21T11:28:50;102742.84;;;22.00;42.11
36692;BME280;22678;52.052;4.242;2022-09-21T11:37:02;102753.47;;;22.03;41.86
36692;BME280;22678;52.052;4.242;2022-09-21T11:42:35;102745.25;;;21.76;42.39
36692;BME280;22678;52.052;4.242;2022-09-21T11:53:27;102739.84;;;21.39;43.11
36692;BME280;22678;52.052;4.242;2022-09-21T11:59:19;102726.28;;;21.09;43.17
36692;BME280;22678;52.052;4.242;2022-09-21T12:02:15;102726.38;;;21.04;43.01
36692;BME280;22678;52.052;4.242;2022-09-21T12:04:50;102725.59;;;20.99;43.08
36692;BME280;22678;52.052;4.242;2022-09-21T12:10:20;102724.16;;;20.82;43.28
36692;BME280;22678;52.052;4.242;2022-09-21T12:15:36;102731.91;;;20.95;42.44
36692;BME280;22678;52.052;4.242;2022-09-21T12:23:44;102715.94;;;21.68;42.03
36692;BME280;22678;52.052;4.242;2022-09-21T12:26:18;102724.44;;;22.20;41.45
36692;BME280;22678;52.052;4.242;2022-09-21T12:28:52;102701.59;;;22.40;40.83
36692;BME280;22678;52.052;4.242;2022-09-21T12:31:30;102683.53;;;22.47;40.60
36692;BME280;22678;52.052;4.242;2022-09-21T12:34:19;102723.88;;;22.73;40.26
36692;BME280;22678;52.052;4.242;2022-09-21T12:36:58;102720.47;;;22.67;40.72
36692;BME280;22678;52.052;4.242;2022-09-21T12:39:31;102721.38;;;22.66;40.94
36692;BME280;22678;52.052;4.242;2022-09-21T12:42:11;102708.69;;;22.72;40.81
36692;BME280;22678;52.052;4.242;2022-09-21T12:44:55;102719.19;;;22.80;41.12
36692;BME280;22678;52.052;4.242;2022-09-21T12:47:35;102699.78;;;22.72;40.99
36692;BME280;22678;52.052;4.242;2022-09-21T12:50:10;102684.22;;;22.53;41.26
36692;BME280;22678;52.052;4.242;2022-09-21T12:52:39;102656.25;;;22.32;41.56
36692;BME280;22678;52.052;4.242;2022-09-21T12:57:53;102680.53;;;22.26;41.90
36692;BME280;22678;52.052;4.242;2022-09-21T13:00:20;102662.41;;;22.03;42.06
36692;BME280;22678;52.052;4.242;2022-09-21T13:03:02;102693.16;;;22.21;42.28
36692;BME280;22678;52.052;4.242;2022-09-21T13:08:10;102688.09;;;22.10;42.35
36692;BME280;22678;52.052;4.242;2022-09-21T13:10:57;102702.31;;;22.12;41.80
36692;BME280;22678;52.052;4.242;2022-09-21T13:15:53;102697.97;;;22.08;41.72
36692;BME280;22678;52.052;4.242;2022-09-21T13:18:33;102704.22;;;22.09;42.41
36692;BME280;22678;52.052;4.242;2022-09-21T13:21:20;102685.81;;;21.95;41.48
36692;BME280;22678;52.052;4.242;2022-09-21T13:26:36;102689.66;;;21.84;41.58
36692;BME280;22678;52.052;4.242;2022-09-21T13:29:23;102683.72;;;21.73;41.48
36692;BME280;22678;52.052;4.242;2022-09-21T13:31:57;102690.16;;;21.66;41.84
36692;BME280;22678;52.052;4.242;2022-09-21T13:34:31;102694.81;;;21.58;42.06
36692;BME280;22678;52.052;4.242;2022-09-21T13:37:26;102692.34;;;21.48;42.50
36692;BME280;22678;52.052;4.242;2022-09-21T13:44:52;102687.19;;;21.39;42.95
36692;BME280;22678;52.052;4.242;2022-09-21T13:47:27;102683.84;;;21.31;43.32
36692;BME280;22678;52.052;4.242;2022-09-21T13:49:54;102670.75;;;21.20;43.25
36692;BME280;22678;52.052;4.242;2022-09-21T13:52:29;102672.44;;;21.23;43.34
36692;BME280;22678;52.052;4.242;2022-09-21T13:55:04;102691.25;;;21.20;43.09
36692;BME280;22678;52.052;4.242;2022-09-21T13:57:37;102689.47;;;21.18;43.09
36692;BME280;22678;52.052;4.242;2022-09-21T14:02:38;102685.97;;;21.16;43.78
36692;BME280;22678;52.052;4.242;2022-09-21T14:05:25;102675.41;;;21.10;44.05
36692;BME280;22678;52.052;4.242;2022-09-21T14:08:03;102671.84;;;21.11;44.25
36692;BME280;22678;52.052;4.242;2022-09-21T14:10:31;102671.91;;;21.08;44.85
36692;BME280;22678;52.052;4.242;2022-09-21T14:13:01;102671.69;;;21.17;44.85
36692;BME280;22678;52.052;4.242;2022-09-21T14:15:34;102677.78;;;21.23;44.60
36692;BME280;22678;52.052;4.242;2022-09-21T14:21:07;102666.13;;;21.25;44.82
36692;BME280;22678;52.052;4.242;2022-09-21T14:23:34;102673.97;;;21.33;44.49
36692;BME280;22678;52.052;4.242;2022-09-21T14:26:17;102671.28;;;21.33;44.54
36692;BME280;22678;52.052;4.242;2022-09-21T14:28:46;102671.28;;;21.33;43.88
36692;BME280;22678;52.052;4.242;2022-09-21T14:31:23;102655.41;;;21.27;43.54
36692;BME280;22678;52.052;4.242;2022-09-21T14:33:53;102636.19;;;21.09;43.53
36692;BME280;22678;52.052;4.242;2022-09-21T14:36:27;102658.91;;;21.29;42.98
36692;BME280;22678;52.052;4.242;2022-09-21T14:41:40;102660.81;;;21.24;43.78
36692;BME280;22678;52.052;4.242;2022-09-21T14:44:21;102632.66;;;21.09;43.75
36692;BME280;22678;52.052;4.242;2022-09-21T14:46:53;102650.25;;;21.19;43.47
36692;BME280;22678;52.052;4.242;2022-09-21T14:49:52;102644.97;;;21.16;43.69
36692;BME280;22678;52.052;4.242;2022-09-21T14:52:40;102646.75;;;21.15;44.15
36692;BME280;22678;52.052;4.242;2022-09-21T14:58:10;102633.66;;;21.39;43.96
36692;BME280;22678;52.052;4.242;2022-09-21T15:00:43;102639.50;;;21.57;43.60
36692;BME280;22678;52.052;4.242;2022-09-21T15:06:33;102629.88;;;21.84;41.68
36692;BME280;22678;52.052;4.242;2022-09-21T15:12:53;102615.44;;;21.90;41.47
36692;BME280;22678;52.052;4.242;2022-09-21T15:15:41;102621.31;;;22.02;41.69
36692;BME280;22678;52.052;4.242;2022-09-21T15:18:27;102618.50;;;22.09;41.69
36692;BME280;22678;52.052;4.242;2022-09-21T15:20:59;102617.44;;;22.14;41.10
36692;BME280;22678;52.052;4.242;2022-09-21T15:23:28;102622.53;;;22.23;41.33
36692;BME280;22678;52.052;4.242;2022-09-21T15:25:57;102605.81;;;22.14;41.13
36692;BME280;22678;52.052;4.242;2022-09-21T15:28:35;102606.78;;;22.11;40.85
36692;BME280;22678;52.052;4.242;2022-09-21T15:31:03;102614.00;;;22.09;40.85
36692;BME280;22678;52.052;4.242;2022-09-21T15:33:28;102614.88;;;22.10;41.04
36692;BME280;22678;52.052;4.242;2022-09-21T15:35:59;102606.13;;;22.03;41.33
36692;BME280;22678;52.052;4.242;2022-09-21T15:38:30;102614.19;;;22.03;41.38
36692;BME280;22678;52.052;4.242;2022-09-21T15:40:56;102607.28;;;21.94;41.55